Clovis ASC Data

Date Time Air Temperature Relative Humidity Dewpoint Windchill Heat Index Wind Speed Wind Dir. Rain Solar Radiation Soil Temperature Soil Temperature
2m 2m 3m 3m 5cm 10cm
US/Mountain F % F F F MPH deg in MJ/m^2 F F
max avg avg
2021-10-14 00:05:00 52.2 29.8 21.5 52.2 52.2 9.2 9.2 7.6 316.3 295.3 0.00 0.0000000 55.7 60.6
2021-10-14 00:10:00 52.4 29.9 21.7 52.4 52.4 7.2 10.5 8.5 283.5 290.1 0.00 0.0000000 55.7 60.5
2021-10-14 00:15:00 52.5 29.5 21.5 52.5 52.5 8.7 9.6 8.3 300.8 286.2 0.00 0.0000000 55.6 60.5
2021-10-14 00:20:00 52.8 29.5 21.8 52.8 52.8 9.0 10.1 8.4 301.4 286.9 0.00 0.0000000 55.5 60.4
2021-10-14 00:25:00 53.0 29.1 21.7 53.0 53.0 9.9 12.1 9.5 301.4 292.1 0.00 0.0000000 55.5 60.4
2021-10-14 00:30:00 53.2 29.2 21.9 53.2 53.2 11.2 12.2 9.8 288.0 291.2 0.00 0.0000000 55.4 60.3
2021-10-14 00:35:00 52.8 30.0 22.2 52.8 52.8 9.0 11.5 9.3 286.5 290.7 0.00 0.0000000 55.4 60.2
2021-10-14 00:40:00 52.7 30.0 22.1 52.7 52.7 9.2 11.0 9.3 282.7 289.6 0.00 0.0000000 55.3 60.2
2021-10-14 00:45:00 52.4 30.6 22.3 52.4 52.4 7.2 10.5 8.8 291.9 298.9 0.00 0.0000000 55.3 60.1
2021-10-14 00:50:00 51.8 31.2 22.3 51.8 51.8 9.0 10.5 8.4 309.2 296.9 0.00 0.0000000 55.3 60.1
2021-10-14 00:55:00 51.4 31.9 22.5 51.4 51.4 7.8 9.4 8.0 290.0 299.5 0.00 0.0000000 55.2 60.0
2021-10-14 01:00:00 51.2 32.0 22.3 51.2 51.2 6.9 8.8 7.1 288.6 301.1 0.00 0.0000000 55.2 60.0
2021-10-14 01:05:00 50.8 32.7 22.4 50.8 50.8 7.1 9.0 7.1 297.0 298.1 0.00 0.0000000 55.1 59.9
2021-10-14 01:10:00 50.5 33.4 22.8 50.5 50.5 6.5 8.8 6.7 295.1 299.6 0.00 0.0000000 55.1 59.8
2021-10-14 01:15:00 50.1 34.0 22.9 50.1 50.1 5.5 8.7 6.6 284.1 297.7 0.00 0.0000000 55.0 59.8
2021-10-14 01:20:00 49.9 34.2 22.7 47.6 49.9 5.8 7.4 6.1 319.1 304.2 0.00 0.0000000 55.0 59.8
2021-10-14 01:25:00 49.7 34.1 22.5 47.6 49.7 5.3 6.7 5.6 296.6 310.0 0.00 0.0000000 54.9 59.7
2021-10-14 01:30:00 49.4 35.2 23.0 48.1 49.4 4.0 7.1 5.4 308.0 305.2 0.00 0.0000000 54.8 59.6
2021-10-14 01:35:00 49.1 36.0 23.3 47.1 49.1 5.1 5.8 4.8 319.5 303.8 0.00 0.0000000 54.8 59.6
2021-10-14 01:40:00 48.9 36.6 23.5 47.1 48.9 4.7 6.0 5.0 300.4 301.1 0.00 0.0000000 54.7 59.6
2021-10-14 01:45:00 48.9 36.9 23.7 46.4 48.9 5.8 6.2 4.8 304.2 299.8 0.00 0.0000000 54.6 59.5
2021-10-14 01:50:00 48.5 37.4 23.6 46.9 48.5 4.4 5.6 4.5 308.2 306.4 0.00 0.0000000 54.6 59.5
2021-10-14 01:55:00 48.3 37.5 23.6 45.7 48.3 6.0 6.0 5.0 303.6 302.3 0.00 0.0000000 54.5 59.4
2021-10-14 02:00:00 47.5 40.0 24.3 45.5 47.5 4.6 6.2 4.9 299.7 301.0 0.00 0.0000000 54.4 59.4
2021-10-14 02:05:00 46.8 41.5 24.6 44.4 46.8 5.1 5.6 4.8 296.8 294.7 0.00 0.0000000 54.3 59.3
2021-10-14 02:10:00 46.1 43.5 25.1 44.3 46.1 4.0 5.1 4.3 284.6 287.4 0.00 0.0000000 54.3 59.3
2021-10-14 02:15:00 45.2 45.8 25.5 42.7 45.2 4.7 4.7 4.1 267.8 278.6 0.00 0.0000000 54.2 59.2
2021-10-14 02:20:00 44.6 47.7 26.0 42.9 44.6 3.7 4.9 4.1 242.2 260.4 0.00 0.0000000 54.1 59.1
2021-10-14 02:25:00 43.5 48.8 25.5 41.3 43.5 4.0 4.7 4.1 265.9 256.5 0.00 0.0000000 54.0 59.1
2021-10-14 02:30:00 44.7 46.5 25.5 42.4 44.7 4.4 5.5 4.7 276.7 281.3 0.00 0.0000000 54.0 59.0
2021-10-14 02:35:00 45.1 46.4 25.7 42.9 45.1 4.4 5.3 4.7 289.8 284.5 0.00 0.0000000 53.9 59.0
2021-10-14 02:40:00 45.3 46.4 26.0 43.3 45.3 4.2 4.9 4.2 275.8 283.0 0.00 0.0000000 53.8 58.9
2021-10-14 02:45:00 44.8 47.9 26.2 44.8 44.8 3.0 3.8 3.4 291.6 283.0 0.00 0.0000000 53.7 58.9
2021-10-14 02:50:00 44.0 49.8 26.5 42.5 44.0 3.3 3.7 3.1 293.4 297.8 0.00 0.0000000 53.6 58.8
2021-10-14 02:55:00 43.3 51.8 26.7 43.3 43.3 2.8 3.8 3.2 281.9 291.2 0.00 0.0000000 53.5 58.8
2021-10-14 03:00:00 42.4 54.5 27.1 40.7 42.4 3.3 3.8 3.1 257.0 267.2 0.00 0.0000000 53.4 58.7
2021-10-14 03:05:00 41.5 55.0 26.6 41.5 41.5 2.6 3.3 2.9 246.6 251.2 0.00 0.0000000 53.4 58.6
2021-10-14 03:10:00 41.1 56.5 26.8 39.4 41.1 3.1 4.2 3.3 238.5 245.5 0.00 0.0000000 53.3 58.6
2021-10-14 03:15:00 40.3 59.4 27.3 40.3 40.3 0.0 3.3 0.9 243.8 236.7 0.00 0.0000000 53.2 58.5
2021-10-14 03:20:00 40.1 59.1 26.9 40.1 40.1 0.0 0.0 0.0 214.3 231.4 0.00 0.0000000 53.1 58.5
2021-10-14 03:25:00 39.5 59.4 26.6 37.1 39.5 3.7 4.7 1.1 179.2 181.8 0.00 0.0000000 53.0 58.4
2021-10-14 03:30:00 40.0 58.0 26.4 37.4 40.0 3.8 5.6 4.7 234.5 207.7 0.00 0.0000000 52.9 58.4
2021-10-14 03:35:00 39.3 59.9 26.5 39.3 39.3 2.1 3.8 3.2 275.8 240.7 0.00 0.0000000 52.8 58.3
2021-10-14 03:40:00 39.4 59.1 26.3 39.4 39.4 2.1 3.0 2.2 240.6 245.4 0.00 0.0000000 52.7 58.3
2021-10-14 03:45:00 39.1 59.7 26.2 39.1 39.1 2.6 2.8 2.3 246.6 246.0 0.00 0.0000000 52.6 58.2
2021-10-14 03:50:00 38.6 61.2 26.3 38.6 38.6 1.7 2.2 1.3 283.8 256.0 0.00 0.0000000 52.5 58.1
2021-10-14 03:55:00 38.6 62.1 26.7 35.6 38.6 4.0 4.0 3.4 283.1 288.7 0.00 0.0000000 52.4 58.1
2021-10-14 04:00:00 38.4 62.5 26.7 34.8 38.4 4.7 4.7 3.8 287.1 275.0 0.00 0.0000000 52.3 58.0
2021-10-14 04:05:00 39.1 60.9 26.8 36.4 39.1 3.8 5.3 4.5 272.5 275.3 0.00 0.0000000 52.2 58.0
2021-10-14 04:10:00 39.2 61.8 27.2 35.3 39.2 5.3 5.5 4.5 276.3 279.4 0.00 0.0000000 52.2 57.9
2021-10-14 04:15:00 38.9 63.6 27.6 35.9 38.9 4.2 5.3 4.6 287.6 287.1 0.00 0.0000000 52.1 57.8
2021-10-14 04:20:00 38.4 63.6 27.2 35.1 38.4 4.4 5.3 4.6 286.7 286.8 0.00 0.0000000 52.0 57.7
2021-10-14 04:25:00 38.8 62.9 27.2 35.3 38.8 4.6 4.9 4.1 258.0 277.6 0.00 0.0000000 51.9 57.7
2021-10-14 04:30:00 38.9 63.3 27.5 35.8 38.9 4.2 4.6 3.7 253.9 259.1 0.00 0.0000000 51.8 57.6
2021-10-14 04:35:00 38.6 63.7 27.4 36.4 38.6 3.3 4.4 3.6 273.5 262.0 0.00 0.0000000 51.7 57.5
2021-10-14 04:40:00 38.5 64.3 27.5 35.9 38.5 3.7 4.2 3.7 292.0 282.5 0.00 0.0000000 51.6 57.5
2021-10-14 04:45:00 38.1 65.2 27.5 35.0 38.1 4.2 4.9 4.1 288.1 292.6 0.00 0.0000000 51.5 57.4
2021-10-14 04:50:00 37.8 65.2 27.2 34.3 37.8 4.6 4.7 4.2 272.7 284.5 0.00 0.0000000 51.5 57.4
2021-10-14 04:55:00 38.7 62.6 27.0 35.9 38.7 3.8 4.9 4.1 275.8 275.2 0.00 0.0000000 51.4 57.3
2021-10-14 05:00:00 39.0 62.4 27.2 35.9 39.0 4.2 4.2 3.7 262.6 266.6 0.00 0.0000000 51.3 57.2
2021-10-14 05:05:00 39.0 62.8 27.4 36.5 39.0 3.7 4.2 3.6 285.8 281.5 0.00 0.0000000 51.2 57.2
2021-10-14 05:10:00 38.6 63.6 27.3 36.0 38.6 3.7 4.4 3.8 288.9 287.3 0.00 0.0000000 51.2 57.1
2021-10-14 05:15:00 38.8 62.8 27.2 35.7 38.8 4.2 4.7 4.1 292.4 288.0 0.00 0.0000000 51.1 57.1
2021-10-14 05:20:00 39.1 62.0 27.1 35.9 39.1 4.4 4.6 4.1 289.5 285.6 0.00 0.0000000 51.0 57.0
2021-10-14 05:25:00 39.5 60.4 26.9 36.4 39.5 4.4 5.1 4.6 287.0 285.1 0.00 0.0000000 51.0 56.9
2021-10-14 05:30:00 40.2 59.5 27.2 36.9 40.2 4.7 5.5 4.6 266.8 272.4 0.00 0.0000000 50.9 56.9
2021-10-14 05:35:00 40.6 58.0 26.9 36.2 40.6 6.3 6.5 5.4 279.8 275.3 0.00 0.0000000 50.8 56.8
2021-10-14 05:40:00 41.0 58.2 27.4 37.8 41.0 4.7 6.7 5.6 275.1 278.1 0.00 0.0000000 50.8 56.7
2021-10-14 05:45:00 40.3 60.2 27.6 36.5 40.3 5.5 6.5 5.5 285.8 284.6 0.00 0.0000000 50.7 56.7
2021-10-14 05:50:00 40.5 58.8 27.2 36.6 40.5 5.6 6.5 5.7 275.6 286.6 0.00 0.0000000 50.7 56.6
2021-10-14 05:55:00 40.7 58.4 27.2 37.8 40.7 4.4 6.3 5.2 287.2 288.9 0.00 0.0000000 50.6 56.6
2021-10-14 06:00:00 40.8 58.6 27.4 39.1 40.8 3.1 5.3 4.3 253.1 274.4 0.00 0.0000000 50.6 56.5
2021-10-14 06:05:00 40.0 61.2 27.8 37.8 40.0 3.5 4.9 4.1 259.0 257.1 0.00 0.0000000 50.5 56.5
2021-10-14 06:10:00 39.5 61.8 27.5 37.2 39.5 3.5 3.7 3.2 219.5 244.7 0.00 0.0000000 50.5 56.4
2021-10-14 06:15:00 39.0 62.4 27.2 37.1 39.0 3.1 4.4 3.2 213.3 194.9 0.00 0.0000000 50.4 56.4
2021-10-14 06:20:00 39.1 60.1 26.4 35.1 39.1 5.5 5.5 4.4 243.4 222.4 0.00 0.0000000 50.4 56.3
2021-10-14 06:25:00 39.5 60.5 27.0 37.6 39.5 3.1 5.6 4.5 240.7 244.2 0.00 0.0000000 50.3 56.2
2021-10-14 06:30:00 38.8 62.0 26.9 38.8 38.8 3.0 3.7 3.3 204.4 217.4 0.00 0.0000000 50.3 56.2
2021-10-14 06:35:00 38.1 63.9 27.0 38.1 38.1 2.8 3.8 2.8 226.0 199.9 0.00 0.0000000 50.2 56.2
2021-10-14 06:40:00 38.2 62.4 26.5 38.2 38.2 2.6 3.0 2.5 247.2 229.1 0.00 0.0000000 50.1 56.1
2021-10-14 06:45:00 38.2 64.1 27.1 35.4 38.2 3.8 3.8 2.5 257.1 258.0 0.00 0.0000000 50.1 56.0
2021-10-14 06:50:00 37.9 64.0 26.8 35.6 37.9 3.3 3.7 3.0 239.9 259.3 0.00 0.0000000 50.0 56.0
2021-10-14 06:55:00 38.1 62.9 26.6 35.8 38.1 3.3 3.8 3.2 261.1 261.3 0.00 0.0000622 49.9 55.9
2021-10-14 07:00:00 38.2 62.6 26.6 38.2 38.2 2.4 3.5 2.7 282.9 268.5 0.00 0.0009168 49.9 55.9
2021-10-14 07:05:00 38.0 63.4 26.7 38.0 38.0 3.0 3.3 2.9 280.9 282.9 0.00 0.0036995 49.8 55.8
2021-10-14 07:10:00 38.0 64.8 27.2 38.0 38.0 3.0 3.5 3.1 281.0 281.3 0.00 0.0077110 49.8 55.8
2021-10-14 07:15:00 38.8 62.4 27.0 38.8 38.8 2.8 3.5 2.9 270.2 271.3 0.00 0.0126201 49.7 55.7
2021-10-14 07:20:00 39.9 57.7 26.2 37.2 39.9 4.0 4.0 3.2 250.0 257.9 0.00 0.0175085 49.7 55.7
2021-10-14 07:25:00 41.3 55.1 26.4 39.0 41.3 3.8 4.7 4.0 246.8 249.6 0.00 0.0223131 49.6 55.7
2021-10-14 07:30:00 42.4 51.5 25.8 39.6 42.4 4.6 4.7 4.1 254.7 251.9 0.00 0.0268574 49.6 55.6
2021-10-14 07:35:00 43.4 50.3 26.1 40.9 43.4 4.4 5.3 4.6 241.3 244.3 0.00 0.0314872 49.6 55.6
2021-10-14 07:40:00 44.4 47.9 25.8 41.6 44.4 4.9 5.6 4.8 247.1 239.8 0.00 0.0361995 49.6 55.5
2021-10-14 07:45:00 45.1 46.6 25.8 41.8 45.1 6.0 6.2 5.3 246.2 243.4 0.00 0.0407881 49.7 55.5
2021-10-14 07:50:00 45.9 45.1 25.8 43.1 45.9 5.5 6.9 5.6 252.4 246.2 0.00 0.0455325 49.7 55.4
2021-10-14 07:55:00 46.6 44.1 25.9 43.5 46.6 6.2 7.1 5.7 244.2 246.2 0.00 0.0500953 49.8 55.4
2021-10-14 08:00:00 47.4 44.5 26.8 44.1 47.4 6.9 8.1 6.9 260.9 259.0 0.00 0.0548574 49.9 55.4
2021-10-14 08:05:00 47.4 42.9 26.0 43.3 47.4 8.7 8.7 7.3 259.1 262.1 0.00 0.0593744 50.1 55.3
2021-10-14 08:10:00 48.1 43.9 27.1 45.1 48.1 6.5 8.3 7.0 260.5 261.9 0.00 0.0641349 50.2 55.3
2021-10-14 08:15:00 48.6 44.0 27.6 45.6 48.6 6.7 9.0 7.1 257.2 262.0 0.00 0.0688056 50.4 55.3
2021-10-14 08:20:00 49.2 42.9 27.6 45.8 49.2 8.0 8.0 6.4 265.3 263.4 0.00 0.0733652 50.6 55.3
2021-10-14 08:25:00 49.6 43.4 28.3 46.9 49.6 6.5 8.7 7.3 267.3 270.6 0.00 0.0780825 50.8 55.3
2021-10-14 08:30:00 50.2 41.3 27.6 50.2 50.2 8.8 9.4 7.3 259.9 270.3 0.00 0.0828835 51.0 55.3
2021-10-14 08:35:00 50.9 41.2 28.1 50.9 50.9 6.5 8.8 7.4 266.5 268.5 0.00 0.0879674 51.2 55.3
2021-10-14 08:40:00 51.7 39.4 27.8 51.7 51.7 7.6 8.7 7.4 267.6 267.9 0.00 0.0926410 51.5 55.3
2021-10-14 08:45:00 52.4 38.6 27.9 52.4 52.4 8.3 9.0 7.8 265.7 268.4 0.00 0.0974564 51.7 55.3
2021-10-14 08:50:00 53.2 37.5 27.9 53.2 53.2 8.3 9.0 7.8 267.2 266.1 0.00 0.1022568 52.1 55.3
2021-10-14 08:55:00 54.1 37.8 28.9 54.1 54.1 6.9 8.5 7.5 263.4 263.9 0.00 0.1071619 52.4 55.3
2021-10-14 09:00:00 55.2 36.4 28.9 55.2 55.2 6.3 9.4 6.8 255.8 255.7 0.00 0.1121385 52.7 55.4
2021-10-14 09:05:00 55.5 34.5 27.9 55.5 55.5 8.1 11.0 7.8 236.2 250.7 0.00 0.1169890 53.1 55.4
2021-10-14 09:10:00 56.0 34.9 28.6 56.0 56.0 7.6 10.8 8.7 255.8 243.4 0.00 0.1216667 53.5 55.5
2021-10-14 09:15:00 56.6 32.6 27.5 56.6 56.6 9.6 9.7 8.9 255.2 249.0 0.00 0.1264568 53.9 55.6
2021-10-14 09:20:00 56.9 33.5 28.5 56.9 56.9 9.2 10.3 8.6 234.7 242.3 0.00 0.1311259 54.3 55.6
2021-10-14 09:25:00 57.2 33.4 28.6 57.2 57.2 8.3 10.5 8.4 262.8 252.8 0.00 0.1355862 54.7 55.7
2021-10-14 09:30:00 57.8 32.5 28.4 57.8 57.8 10.1 11.5 9.5 241.5 251.6 0.00 0.1401400 55.1 55.8
2021-10-14 09:35:00 58.1 32.8 29.0 58.1 58.1 9.4 11.7 9.8 250.6 250.2 0.00 0.1445757 55.5 55.9
2021-10-14 09:40:00 58.6 31.8 28.7 58.6 58.6 9.0 11.7 8.6 264.7 256.5 0.00 0.1491758 56.0 56.0
2021-10-14 09:45:00 59.4 31.1 28.8 59.4 59.4 8.5 11.2 8.4 276.3 252.9 0.00 0.1537301 56.4 56.1
2021-10-14 09:50:00 59.9 30.3 28.6 59.9 59.9 9.6 10.1 8.5 243.0 255.5 0.00 0.1582568 56.9 56.2
2021-10-14 09:55:00 60.7 28.3 27.6 60.7 60.7 8.3 11.2 9.6 260.8 246.9 0.00 0.1629135 57.3 56.4
2021-10-14 10:00:00 60.9 27.6 27.2 60.9 60.9 11.2 12.4 10.2 265.0 256.7 0.00 0.1669655 57.8 56.5
2021-10-14 10:05:00 61.5 27.1 27.3 61.5 61.5 8.7 11.5 9.9 259.7 251.1 0.00 0.1708056 58.3 56.6
2021-10-14 10:10:00 62.6 23.7 25.0 62.6 62.6 9.7 13.0 9.9 235.5 248.7 0.00 0.1748532 58.7 56.8
2021-10-14 10:15:00 62.7 24.3 25.7 62.7 62.7 8.1 12.1 8.9 256.7 255.4 0.00 0.1789442 59.2 56.9
2021-10-14 10:20:00 63.0 21.5 23.0 63.0 63.0 12.2 13.9 10.8 242.8 252.1 0.00 0.1828657 59.6 57.1
2021-10-14 10:25:00 63.8 22.2 24.4 63.8 63.8 9.6 13.0 9.8 283.5 257.2 0.00 0.1865105 60.0 57.2
2021-10-14 10:30:00 64.0 21.3 23.5 64.0 64.0 9.9 14.7 11.5 239.7 256.4 0.00 0.1904168 60.3 57.4
2021-10-14 10:35:00 63.8 22.3 24.5 63.8 63.8 9.6 15.8 12.3 261.8 257.7 0.00 0.1938984 60.6 57.5
2021-10-14 10:40:00 64.6 19.9 22.4 64.6 64.6 15.6 17.2 11.6 280.4 261.9 0.00 0.1972177 61.0 57.7
2021-10-14 10:45:00 64.3 19.2 21.3 64.3 64.3 12.1 19.6 13.4 255.6 260.1 0.00 0.2004417 61.4 57.8
2021-10-14 10:50:00 65.4 20.0 23.3 65.4 65.4 12.2 14.7 12.3 237.6 251.7 0.00 0.2040434 61.8 57.9
2021-10-14 10:55:00 65.4 19.0 22.0 65.4 65.4 11.7 14.6 11.1 262.8 259.3 0.00 0.2068575 62.3 58.1
2021-10-14 11:00:00 65.2 19.2 22.1 65.2 65.2 11.3 16.0 11.9 248.9 255.8 0.00 0.2096928 62.7 58.3
2021-10-14 11:05:00 65.1 20.0 23.0 65.1 65.1 13.0 14.7 12.4 241.6 261.6 0.00 0.2123481 63.2 58.4
2021-10-14 11:10:00 65.2 19.6 22.6 65.2 65.2 14.0 15.5 12.8 262.0 258.3 0.00 0.2151392 63.7 58.6
2021-10-14 11:15:00 65.4 18.7 21.6 65.4 65.4 15.1 16.7 13.5 283.7 259.3 0.00 0.2177394 64.2 58.8
2021-10-14 11:20:00 65.4 19.1 22.1 65.4 65.4 14.2 17.6 13.5 288.6 264.8 0.00 0.2199391 64.7 59.0
2021-10-14 11:25:00 65.9 16.8 19.5 65.9 65.9 17.1 17.2 13.6 275.8 256.1 0.00 0.2223087 65.1 59.2
2021-10-14 11:30:00 66.1 17.1 20.2 66.1 66.1 14.9 17.8 12.8 231.1 256.6 0.00 0.2244961 65.6 59.4
2021-10-14 11:35:00 65.7 17.1 19.8 65.7 65.7 11.5 17.4 12.8 254.3 240.4 0.00 0.2264073 66.0 59.6
2021-10-14 11:40:00 66.1 18.8 22.4 66.1 66.1 9.0 14.4 11.7 264.5 234.8 0.00 0.2281735 66.5 59.8
2021-10-14 11:45:00 66.6 17.5 21.0 66.6 66.6 14.4 17.6 14.5 266.1 261.7 0.00 0.2301199 66.9 60.1
2021-10-14 11:50:00 66.5 17.0 20.3 66.5 66.5 14.6 19.8 14.6 253.2 258.6 0.00 0.2315599 67.4 60.3
2021-10-14 11:55:00 66.9 16.0 19.2 66.9 66.9 21.5 21.5 14.8 234.7 253.8 0.00 0.2326492 67.8 60.5
2021-10-14 12:00:00 66.5 17.8 21.4 66.5 66.5 17.2 21.0 16.1 254.3 240.8 0.00 0.2338197 68.2 60.7
2021-10-14 12:05:00 66.4 17.5 20.9 66.4 66.4 18.0 19.8 15.8 256.9 245.0 0.00 0.2351929 68.6 60.9
2021-10-14 12:10:00 67.6 16.0 19.8 67.6 67.6 17.6 23.0 17.4 255.6 242.3 0.00 0.2361015 68.9 61.2
2021-10-14 12:15:00 67.7 16.5 20.6 67.7 67.7 16.5 19.4 15.7 242.8 240.4 0.00 0.2368405 69.3 61.4
2021-10-14 12:20:00 68.0 16.4 20.7 68.0 68.0 16.5 20.1 16.3 239.1 240.9 0.00 0.2374726 69.6 61.6
2021-10-14 12:25:00 67.2 15.3 18.4 67.2 67.2 19.6 20.1 17.1 259.6 248.2 0.00 0.2387850 70.0 61.8
2021-10-14 12:30:00 67.1 15.7 18.9 67.1 67.1 19.2 21.4 17.2 266.0 259.4 0.00 0.2382391 70.3 62.0
2021-10-14 12:35:00 67.3 15.8 19.3 67.3 67.3 20.6 21.5 17.2 242.1 252.2 0.00 0.2385240 70.6 62.2
2021-10-14 12:40:00 68.1 14.6 18.1 68.1 68.1 17.6 21.5 17.0 250.2 251.7 0.00 0.2387971 70.9 62.4
2021-10-14 12:45:00 67.2 15.2 18.3 67.2 67.2 21.7 23.2 20.0 230.1 241.8 0.00 0.2391147 71.2 62.6
2021-10-14 12:50:00 68.0 14.2 17.4 68.0 68.0 21.2 23.9 18.9 246.0 246.0 0.00 0.2387011 71.5 62.7
2021-10-14 12:55:00 67.8 15.2 18.8 67.8 67.8 19.0 19.9 16.5 234.4 247.7 0.00 0.2385709 71.8 62.9
2021-10-14 13:00:00 68.0 15.6 19.5 68.0 68.0 13.7 24.4 18.0 250.4 248.9 0.00 0.2380025 72.0 63.1
2021-10-14 13:05:00 68.3 15.2 19.1 68.3 68.3 15.5 21.0 16.3 238.4 250.6 0.00 0.2379431 72.3 63.3
2021-10-14 13:10:00 68.0 14.9 18.5 68.0 68.0 15.1 23.3 17.2 226.8 231.7 0.00 0.2367452 72.5 63.5
2021-10-14 13:15:00 68.0 15.6 19.5 68.0 68.0 19.2 20.5 17.2 266.3 253.9 0.00 0.2360452 72.8 63.7
2021-10-14 13:20:00 67.7 15.8 19.6 67.7 67.7 18.7 21.7 16.8 241.0 243.4 0.00 0.2344330 73.0 63.8
2021-10-14 13:25:00 68.2 14.9 18.6 68.2 68.2 17.8 23.3 16.9 258.5 239.2 0.00 0.2329273 73.3 64.0
2021-10-14 13:30:00 68.6 14.2 17.8 68.6 68.6 18.1 21.2 16.1 221.2 247.0 0.00 0.2315969 73.5 64.2
2021-10-14 13:35:00 68.4 15.3 19.4 68.4 68.4 18.0 21.4 16.6 239.6 229.7 0.00 0.2297393 73.7 64.4
2021-10-14 13:40:00 69.0 14.4 18.4 69.0 69.0 14.0 21.0 15.3 231.5 227.9 0.00 0.2282393 73.9 64.5
2021-10-14 13:45:00 69.2 14.7 19.1 69.2 69.2 13.0 22.4 15.1 228.8 231.2 0.00 0.2263367 74.1 64.7
2021-10-14 13:50:00 69.0 14.8 19.1 69.0 69.0 12.8 23.2 17.3 244.6 246.2 0.00 0.2244598 74.4 64.9
2021-10-14 13:55:00 69.0 14.3 18.3 69.0 69.0 14.4 18.5 15.8 253.7 251.7 0.00 0.2223591 74.5 65.1
2021-10-14 14:00:00 68.6 15.0 19.1 68.6 68.6 12.8 18.9 14.1 226.4 248.7 0.00 0.2194023 74.7 65.2
2021-10-14 14:05:00 68.8 15.0 19.2 68.8 68.8 15.6 22.4 15.4 244.5 240.1 0.00 0.2166584 74.9 65.4
2021-10-14 14:10:00 69.2 14.5 18.7 69.2 69.2 21.5 21.9 16.7 254.0 252.8 0.00 0.2151121 75.1 65.6
2021-10-14 14:15:00 69.1 14.3 18.3 69.1 69.1 12.4 24.4 16.7 249.7 256.3 0.00 0.2122633 75.2 65.7
2021-10-14 14:20:00 69.4 12.8 16.1 69.4 69.4 17.1 22.1 16.3 243.9 248.8 0.00 0.2105569 75.4 65.9
2021-10-14 14:25:00 69.6 12.9 16.4 69.6 69.6 16.4 18.5 15.7 257.7 255.2 0.00 0.2074073 75.5 66.0
2021-10-14 14:30:00 70.0 12.0 15.0 70.0 70.0 16.0 22.6 16.2 249.1 246.7 0.00 0.2047547 75.7 66.1
2021-10-14 14:35:00 70.3 12.0 15.3 70.3 70.3 15.8 20.1 15.9 261.4 255.1 0.00 0.2011314 75.7 66.3
2021-10-14 14:40:00 70.4 11.2 13.9 70.4 70.4 13.0 25.5 19.2 281.7 254.7 0.00 0.1978269 75.8 66.4
2021-10-14 14:45:00 70.6 11.7 14.9 70.6 70.6 21.2 22.4 19.2 252.0 252.8 0.00 0.1949710 75.9 66.5
2021-10-14 14:50:00 70.3 11.5 14.3 70.3 70.3 27.2 27.2 20.2 255.0 254.7 0.00 0.1913667 76.0 66.6
2021-10-14 14:55:00 70.4 11.6 14.6 70.4 70.4 12.6 27.2 18.9 265.6 253.9 0.00 0.1881570 76.0 66.8
2021-10-14 15:00:00 70.6 11.7 14.9 70.6 70.6 16.5 23.7 17.9 275.3 263.4 0.00 0.1839291 76.0 66.9
2021-10-14 15:05:00 70.6 12.2 15.9 70.6 70.6 17.1 23.7 17.4 248.1 263.3 0.00 0.1804925 76.1 67.0
2021-10-14 15:10:00 71.2 12.2 16.4 71.2 71.2 19.4 22.3 17.2 249.9 245.2 0.00 0.1767698 76.1 67.0
2021-10-14 15:15:00 70.9 12.1 15.8 70.9 70.9 20.3 23.5 18.1 249.7 251.3 0.00 0.1729537 76.1 67.1
2021-10-14 15:20:00 70.6 11.6 14.6 70.6 70.6 17.2 24.4 18.9 245.8 252.4 0.00 0.1684301 76.1 67.2
2021-10-14 15:25:00 70.6 11.8 15.0 70.6 70.6 15.3 20.3 16.5 241.3 241.7 0.00 0.1651005 76.1 67.3
2021-10-14 15:30:00 71.7 11.2 14.8 71.7 71.7 13.1 17.6 13.8 238.3 242.3 0.00 0.1603405 76.1 67.4
2021-10-14 15:35:00 70.9 11.3 14.3 70.9 70.9 16.0 21.4 17.4 246.4 251.9 0.00 0.1559235 76.0 67.4
2021-10-14 15:40:00 70.7 11.0 13.6 70.7 70.7 18.9 18.9 14.4 258.4 257.3 0.00 0.1517209 76.0 67.5
2021-10-14 15:45:00 71.3 11.6 15.3 71.3 71.3 13.5 16.9 12.7 256.7 243.0 0.00 0.1469903 76.0 67.6
2021-10-14 15:50:00 71.0 11.3 14.3 71.0 71.0 16.0 18.0 15.1 247.9 251.3 0.00 0.1428106 76.0 67.6
2021-10-14 15:55:00 71.1 11.1 14.0 71.1 71.1 17.2 19.4 16.2 245.7 260.0 0.00 0.1379216 75.9 67.7
2021-10-14 16:00:00 71.3 11.1 14.3 71.3 71.3 18.3 18.5 14.9 254.1 246.0 0.00 0.1332682 75.8 67.7
2021-10-14 16:05:00 71.0 11.3 14.5 71.0 71.0 15.1 20.3 16.7 228.6 242.5 0.00 0.1289990 75.8 67.7
2021-10-14 16:10:00 70.7 11.6 14.8 70.7 70.7 10.5 16.2 12.7 249.3 245.7 0.00 0.1237386 75.7 67.8
2021-10-14 16:15:00 71.2 11.3 14.5 71.2 71.2 14.4 19.4 14.1 215.7 242.9 0.00 0.1196498 75.6 67.8
2021-10-14 16:20:00 71.2 11.4 14.8 71.2 71.2 10.5 19.4 14.7 253.5 239.4 0.00 0.1149938 75.5 67.8
2021-10-14 16:25:00 71.0 11.1 14.1 71.0 71.0 16.5 20.6 16.1 237.6 242.4 0.00 0.1099442 75.4 67.9
2021-10-14 16:30:00 70.7 11.2 14.1 70.7 70.7 14.6 22.1 17.6 234.7 247.9 0.00 0.1053076 75.3 67.9
2021-10-14 16:35:00 71.0 10.7 13.1 71.0 71.0 19.0 19.0 14.8 248.5 237.6 0.00 0.1002018 75.2 67.9
2021-10-14 16:40:00 70.7 11.4 14.5 70.7 70.7 16.2 23.0 16.7 261.3 244.3 0.00 0.0953153 75.0 67.9
2021-10-14 16:45:00 70.6 11.2 13.9 70.6 70.6 18.1 21.7 17.0 248.8 242.0 0.00 0.0901474 74.9 67.9
2021-10-14 16:50:00 70.4 12.2 15.7 70.4 70.4 16.0 18.9 14.5 267.3 247.3 0.00 0.0850224 74.7 67.9
2021-10-14 16:55:00 70.1 12.1 15.2 70.1 70.1 14.7 18.7 14.3 231.0 249.8 0.00 0.0802100 74.5 67.9
2021-10-14 17:00:00 69.8 12.1 15.0 69.8 69.8 18.7 23.3 17.7 250.6 238.9 0.00 0.0752244 74.3 67.9
2021-10-14 17:05:00 69.7 12.5 15.7 69.7 69.7 17.1 21.9 16.9 240.3 238.6 0.00 0.0704537 74.0 67.9
2021-10-14 17:10:00 69.6 12.7 16.0 69.6 69.6 14.4 20.8 15.4 251.2 254.2 0.00 0.0654819 73.9 67.9
2021-10-14 17:15:00 69.5 13.4 17.2 69.5 69.5 11.3 17.1 13.1 242.3 251.1 0.00 0.0608743 73.6 67.9
2021-10-14 17:20:00 69.3 12.9 16.1 69.3 69.3 13.9 19.2 14.1 239.2 242.0 0.00 0.0563185 73.3 67.9
2021-10-14 17:25:00 68.9 13.2 16.4 68.9 68.9 16.7 17.1 15.2 223.0 238.7 0.00 0.0515935 73.1 67.9
2021-10-14 17:30:00 68.6 13.2 16.1 68.6 68.6 16.2 21.4 17.5 239.6 242.1 0.00 0.0470942 72.8 67.8
2021-10-14 17:35:00 68.4 13.1 15.9 68.4 68.4 16.5 19.4 14.1 245.2 248.1 0.00 0.0423774 72.6 67.8
2021-10-14 17:40:00 68.0 14.8 18.4 68.0 68.0 13.7 16.2 13.8 259.8 257.0 0.00 0.0376363 72.2 67.8
2021-10-14 17:45:00 67.6 14.9 18.1 67.6 67.6 11.5 18.7 14.3 260.5 259.2 0.00 0.0327023 72.0 67.7
2021-10-14 17:50:00 67.1 16.0 19.3 67.1 67.1 13.7 14.7 12.4 258.5 261.1 0.00 0.0280796 71.7 67.7
2021-10-14 17:55:00 66.5 16.1 19.0 66.5 66.5 14.0 14.4 12.3 266.7 259.8 0.00 0.0236432 71.4 67.7
2021-10-14 18:00:00 66.5 15.7 18.4 66.5 66.5 15.3 18.7 14.6 268.7 262.7 0.00 0.0192116 71.1 67.6
2021-10-14 18:05:00 65.7 17.6 20.4 65.7 65.7 11.7 16.9 12.9 263.8 260.4 0.00 0.0148897 70.8 67.6
2021-10-14 18:10:00 64.9 18.2 20.5 64.9 64.9 13.7 13.7 10.9 260.0 260.7 0.00 0.0091983 70.4 67.5
2021-10-14 18:15:00 64.4 19.0 21.2 64.4 64.4 11.2 12.8 11.2 250.7 261.1 0.00 0.0047339 70.1 67.5
2021-10-14 18:20:00 63.3 20.2 21.8 63.3 63.3 9.4 11.2 9.7 253.6 264.8 0.00 0.0005971 69.8 67.4
2021-10-14 18:25:00 63.0 20.2 21.5 63.0 63.0 10.6 12.4 10.3 278.5 267.2 0.00 0.0000000 69.5 67.4
2021-10-14 18:30:00 62.7 20.7 21.8 62.7 62.7 11.0 13.9 10.8 263.9 268.4 0.00 0.0000000 69.2 67.3
2021-10-14 18:35:00 62.4 21.4 22.4 62.4 62.4 10.3 12.6 10.7 274.7 271.8 0.00 0.0000000 68.8 67.2
2021-10-14 18:40:00 61.8 22.0 22.5 61.8 61.8 10.6 12.2 10.4 281.5 275.9 0.00 0.0000000 68.5 67.2
2021-10-14 18:45:00 61.6 21.8 22.2 61.6 61.6 10.5 13.1 10.6 270.3 271.1 0.00 0.0000000 68.2 67.1
2021-10-14 18:50:00 61.4 21.9 22.2 61.4 61.4 11.9 11.9 10.4 274.2 268.9 0.00 0.0000000 67.8 67.0
2021-10-14 18:55:00 61.0 22.8 22.7 61.0 61.0 10.5 12.2 10.5 284.3 276.1 0.00 0.0000000 67.6 66.9
2021-10-14 19:00:00 60.5 23.3 22.7 60.5 60.5 14.2 14.2 11.3 270.2 277.6 0.00 0.0000000 67.2 66.8
2021-10-14 19:05:00 60.3 24.0 23.3 60.3 60.3 8.7 13.9 11.4 287.8 279.2 0.00 0.0000000 67.0 66.8
2021-10-14 19:10:00 59.3 25.5 23.9 59.3 59.3 9.7 11.5 9.6 309.5 286.8 0.00 0.0000000 66.7 66.7
2021-10-14 19:15:00 58.5 26.7 24.3 58.5 58.5 7.6 11.3 9.0 281.1 285.3 0.00 0.0000000 66.4 66.6
2021-10-14 19:20:00 58.0 27.2 24.4 58.0 58.0 6.9 10.6 8.6 297.9 285.2 0.00 0.0000000 66.1 66.5
2021-10-14 19:25:00 57.6 27.9 24.7 57.6 57.6 8.1 9.6 8.2 280.9 280.9 0.00 0.0000000 65.9 66.4
2021-10-14 19:30:00 56.6 29.3 25.0 56.6 56.6 8.0 9.9 8.5 291.2 281.6 0.00 0.0000000 65.6 66.3
2021-10-14 19:35:00 56.7 29.0 24.7 56.7 56.7 6.5 9.0 7.5 300.3 289.2 0.00 0.0000000 65.4 66.2
2021-10-14 19:40:00 57.0 29.0 25.1 57.0 57.0 7.1 9.2 7.0 275.9 290.6 0.00 0.0000000 65.1 66.1
2021-10-14 19:45:00 56.7 29.2 24.9 56.7 56.7 5.6 8.3 6.5 286.8 285.5 0.00 0.0000000 64.9 66.0
2021-10-14 19:50:00 56.1 30.2 25.2 56.1 56.1 6.5 7.6 6.6 276.1 280.7 0.00 0.0000000 64.7 65.9
2021-10-14 19:55:00 55.1 31.5 25.4 55.1 55.1 5.6 7.2 6.0 275.4 281.4 0.00 0.0000000 64.4 65.8
2021-10-14 20:00:00 54.7 32.3 25.6 54.7 54.7 4.4 5.5 4.6 286.1 282.4 0.00 0.0000000 64.2 65.8
2021-10-14 20:05:00 54.7 31.2 24.7 54.7 54.7 6.0 6.2 4.8 272.9 280.8 0.00 0.0000000 64.0 65.7
2021-10-14 20:10:00 55.8 30.0 24.8 55.8 55.8 8.0 9.4 7.5 270.7 275.1 0.00 0.0000000 63.7 65.5
2021-10-14 20:15:00 56.3 30.1 25.4 56.3 56.3 7.8 9.2 7.7 286.0 281.1 0.00 0.0000000 63.5 65.4
2021-10-14 20:20:00 56.3 30.3 25.5 56.3 56.3 6.3 8.1 6.7 280.4 281.9 0.00 0.0000000 63.3 65.4
2021-10-14 20:25:00 55.8 31.1 25.7 55.8 55.8 5.3 6.5 5.4 278.6 284.0 0.00 0.0000000 63.1 65.2
2021-10-14 20:30:00 55.5 31.8 25.9 55.5 55.5 5.5 7.4 6.2 274.5 281.8 0.00 0.0000000 62.9 65.2
2021-10-14 20:35:00 54.9 32.7 26.0 54.9 54.9 8.1 8.1 6.6 300.5 282.3 0.00 0.0000000 62.7 65.0
2021-10-14 20:40:00 54.7 33.1 26.3 54.7 54.7 7.4 8.7 7.3 283.7 283.9 0.00 0.0000000 62.5 65.0
2021-10-14 20:45:00 54.6 33.8 26.6 54.6 54.6 6.2 8.0 6.7 293.1 285.3 0.00 0.0000000 62.3 64.9
2021-10-14 20:50:00 54.3 34.1 26.6 54.3 54.3 5.8 7.2 6.4 283.4 284.2 0.00 0.0000000 62.1 64.7
2021-10-14 20:55:00 53.9 34.8 26.7 53.9 53.9 6.0 7.1 5.8 288.4 287.3 0.00 0.0000000 62.0 64.7
2021-10-14 21:00:00 53.6 35.3 26.8 53.6 53.6 4.7 6.7 5.6 298.2 288.4 0.00 0.0000000 61.8 64.6
2021-10-14 21:05:00 53.0 36.4 27.1 53.0 53.0 4.9 5.6 5.1 294.8 286.5 0.00 0.0000000 61.6 64.5
2021-10-14 21:10:00 52.2 37.7 27.1 52.2 52.2 4.0 5.6 4.5 292.9 290.8 0.00 0.0000000 61.5 64.4
2021-10-14 21:15:00 50.9 40.3 27.6 50.9 50.9 3.5 4.2 3.6 280.5 289.6 0.00 0.0000000 61.3 64.3
2021-10-14 21:20:00 50.2 41.3 27.6 50.2 50.2 3.5 4.2 3.7 288.0 290.5 0.00 0.0000000 61.1 64.2
2021-10-14 21:25:00 49.7 42.4 27.8 48.5 49.7 4.0 4.4 3.8 293.8 293.3 0.00 0.0000000 61.0 64.1
2021-10-14 21:30:00 49.4 42.2 27.4 48.4 49.4 3.7 4.6 4.0 293.1 293.4 0.00 0.0000000 60.8 64.0
2021-10-14 21:35:00 49.6 41.5 27.2 48.8 49.6 3.5 4.0 3.7 278.5 286.9 0.00 0.0000000 60.6 63.9
2021-10-14 21:40:00 49.4 42.9 27.7 48.7 49.4 3.3 3.7 3.2 273.4 277.6 0.00 0.0000000 60.5 63.8
2021-10-14 21:45:00 48.6 41.9 26.5 46.2 48.6 5.6 6.0 3.8 254.1 256.4 0.00 0.0000000 60.3 63.7
2021-10-14 21:50:00 49.9 40.3 26.7 48.9 49.9 3.7 5.6 4.8 265.0 270.6 0.00 0.0000000 60.2 63.7
2021-10-14 21:55:00 49.0 43.7 27.9 49.0 49.0 2.2 3.3 2.6 267.8 264.2 0.00 0.0000000 60.0 63.6
2021-10-14 22:00:00 47.9 45.3 27.8 47.2 47.9 3.1 3.1 2.3 265.2 266.7 0.00 0.0000000 59.8 63.5
2021-10-14 22:05:00 47.9 45.4 27.8 46.4 47.9 4.0 4.4 4.1 269.4 264.9 0.00 0.0000000 59.6 63.4
2021-10-14 22:10:00 47.5 46.8 28.2 46.1 47.5 3.8 4.6 4.0 272.4 269.2 0.00 0.0000000 59.5 63.2
2021-10-14 22:15:00 47.3 47.4 28.3 45.8 47.3 3.8 4.0 3.7 271.2 270.4 0.00 0.0000000 59.3 63.2
2021-10-14 22:20:00 46.9 48.3 28.4 45.7 46.9 3.5 4.0 3.5 266.8 268.9 0.00 0.0000000 59.2 63.1
2021-10-14 22:25:00 46.4 49.2 28.4 45.5 46.4 3.1 3.3 3.2 262.3 264.3 0.00 0.0000000 59.0 63.0
2021-10-14 22:30:00 46.1 49.8 28.3 44.7 46.1 3.5 3.7 3.4 269.9 266.8 0.00 0.0000000 58.9 62.9
2021-10-14 22:35:00 45.5 51.6 28.7 44.4 45.5 3.1 3.7 3.3 279.2 273.5 0.00 0.0000000 58.7 62.8
2021-10-14 22:40:00 44.7 54.0 29.1 43.6 44.7 3.1 3.7 3.2 283.4 284.2 0.00 0.0000000 58.6 62.7
2021-10-14 22:45:00 45.0 52.6 28.7 43.3 45.0 3.7 4.4 3.6 276.3 283.7 0.00 0.0000000 58.4 62.6
2021-10-14 22:50:00 45.2 52.5 28.9 43.2 45.2 4.2 4.4 3.8 285.2 284.6 0.00 0.0000000 58.3 62.5
2021-10-14 22:55:00 45.3 51.5 28.5 43.3 45.3 4.2 4.9 4.0 285.0 286.9 0.00 0.0000000 58.2 62.5
2021-10-14 23:00:00 45.4 49.6 27.6 43.0 45.4 4.7 5.1 4.5 307.4 305.7 0.00 0.0000000 58.0 62.3
2021-10-14 23:05:00 47.3 43.8 26.3 45.4 47.3 4.4 6.0 4.9 307.4 300.4 0.00 0.0000000 57.9 62.3
2021-10-14 23:10:00 48.7 42.5 26.8 46.9 48.7 4.6 5.5 4.7 296.6 300.5 0.00 0.0000000 57.7 62.2
2021-10-14 23:15:00 48.5 42.2 26.6 46.6 48.5 4.7 6.0 5.0 304.4 302.4 0.00 0.0000000 57.6 62.1
2021-10-14 23:20:00 48.2 43.3 26.9 46.8 48.2 4.0 5.5 4.6 288.3 299.0 0.00 0.0000000 57.5 62.0
2021-10-14 23:25:00 47.5 43.9 26.6 45.4 47.5 4.7 5.3 4.1 301.5 298.0 0.00 0.0000000 57.4 61.9
2021-10-14 23:30:00 47.3 44.1 26.5 45.4 47.3 4.4 4.7 4.0 288.9 297.5 0.00 0.0000000 57.3 61.8
2021-10-14 23:35:00 46.9 44.9 26.6 45.1 46.9 4.2 5.3 4.1 311.8 298.1 0.00 0.0000000 57.2 61.8
2021-10-14 23:40:00 46.6 45.3 26.6 45.1 46.6 3.8 4.9 4.0 304.4 298.4 0.00 0.0000000 57.1 61.6
2021-10-14 23:45:00 46.4 44.7 26.1 45.3 46.4 3.3 5.3 4.2 329.3 308.3 0.00 0.0000000 56.9 61.6
2021-10-14 23:50:00 46.3 44.1 25.6 43.7 46.3 5.1 5.1 4.0 308.7 318.8 0.00 0.0000000 56.8 61.5
2021-10-14 23:55:00 46.8 42.3 25.1 44.1 46.8 5.6 6.3 5.1 331.2 327.4 0.00 0.0000000 56.7 61.4
2021-10-15 00:00:00 47.5 42.0 25.5 44.7 47.5 6.0 6.9 5.7 323.1 332.4 0.00 0.0000000 56.6 61.3

Data is courtesy of the NM Climate Center. DO NOT USE IN LEGAL PROCEEDINGS.